createdAt,value
2018-07-05T00:01:35.395Z,4.87
2018-07-05T00:04:15.725Z,5.40
2018-07-05T00:06:55.974Z,6.00
2018-07-05T00:09:36.301Z,5.83
2018-07-05T00:12:16.631Z,6.00
2018-07-05T00:14:57.090Z,6.10
2018-07-05T00:17:37.519Z,6.60
2018-07-05T00:20:17.771Z,6.00
2018-07-05T00:22:52.238Z,5.60
2018-07-05T00:25:32.580Z,6.03
2018-07-05T00:28:12.937Z,6.77
2018-07-05T00:30:53.410Z,7.03
2018-07-05T00:33:33.873Z,6.10
2018-07-05T00:36:14.711Z,6.40
2018-07-05T00:38:55.038Z,6.00
2018-07-05T00:41:35.361Z,6.20
2018-07-05T00:44:15.770Z,7.20
2018-07-05T00:46:56.316Z,6.50
2018-07-05T00:49:36.747Z,7.00
2018-07-05T00:52:17.142Z,7.33
2018-07-05T00:54:57.401Z,7.00
2018-07-05T00:57:37.765Z,7.10
2018-07-05T01:00:18.130Z,6.83
2018-07-05T01:02:58.465Z,7.17
2018-07-05T01:05:38.658Z,7.40
2018-07-05T01:08:18.987Z,6.97
2018-07-05T01:10:59.341Z,6.70
2018-07-05T01:13:39.680Z,6.60
2018-07-05T01:16:19.961Z,6.90
2018-07-05T01:19:00.290Z,6.43
2018-07-05T01:21:40.613Z,6.50
2018-07-05T01:24:20.825Z,7.23
2018-07-05T01:27:01.233Z,7.30
2018-07-05T01:29:41.623Z,7.20
2018-07-05T01:32:22.084Z,7.10
2018-07-05T01:35:02.441Z,7.47
2018-07-05T01:37:43.091Z,8.40
2018-07-05T01:40:23.550Z,9.27
2018-07-05T01:43:03.937Z,7.87
2018-07-05T01:45:44.281Z,8.47
2018-07-05T01:48:24.629Z,8.43
2018-07-05T01:51:04.905Z,7.50
2018-07-05T01:53:46.301Z,8.70
2018-07-05T01:56:26.822Z,7.50
2018-07-05T01:59:07.201Z,9.03
2018-07-05T02:01:47.694Z,8.50
2018-07-05T02:04:28.131Z,8.77
2018-07-05T02:09:54.309Z,8.03
2018-07-05T02:12:35.049Z,8.13
2018-07-05T02:15:15.501Z,9.57
2018-07-05T02:17:56.372Z,10.00
2018-07-05T02:20:36.834Z,9.00
2018-07-05T02:23:17.002Z,10.17
2018-07-05T02:25:57.350Z,11.70
2018-07-05T02:28:37.967Z,10.13
2018-07-05T02:31:18.237Z,9.63
2018-07-05T02:33:59.178Z,11.20
2018-07-05T02:36:39.658Z,9.23
2018-07-05T02:39:25.471Z,10.70
2018-07-05T02:42:05.742Z,8.73
2018-07-05T02:44:45.942Z,10.00
2018-07-05T02:47:26.373Z,10.73
2018-07-05T02:50:07.040Z,10.83
2018-07-05T02:52:47.502Z,9.20
2018-07-05T02:55:27.954Z,9.43
2018-07-05T02:58:08.522Z,9.50
2018-07-05T03:00:49.109Z,10.50
2018-07-05T03:03:29.410Z,11.43
2018-07-05T03:06:09.766Z,10.90
2018-07-05T03:08:49.978Z,11.60
2018-07-05T03:11:30.709Z,9.40
2018-07-05T03:14:11.135Z,9.77
2018-07-05T03:16:51.415Z,11.20
2018-07-05T03:19:31.869Z,10.67
2018-07-05T03:22:12.331Z,10.10
2018-07-05T03:24:52.711Z,10.03
2018-07-05T03:27:33.105Z,10.00
2018-07-05T03:30:13.717Z,10.03
2018-07-05T03:32:54.275Z,11.27
2018-07-05T03:35:34.643Z,11.00
2018-07-05T03:38:15.017Z,11.73
2018-07-05T03:40:55.730Z,8.80
2018-07-05T03:43:36.382Z,10.30
2018-07-05T03:46:16.851Z,11.23
2018-07-05T03:48:57.006Z,12.23
2018-07-05T03:51:37.414Z,10.53
2018-07-05T03:54:17.622Z,10.97
2018-07-05T03:56:57.917Z,11.13
2018-07-05T03:59:38.400Z,11.03
2018-07-05T04:02:18.890Z,12.13
2018-07-05T04:04:59.295Z,12.00
2018-07-05T04:07:39.633Z,10.60
2018-07-05T04:10:19.933Z,11.00
2018-07-05T04:13:01.276Z,11.30
2018-07-05T04:15:35.688Z,11.87
2018-07-05T04:18:15.950Z,10.80
2018-07-05T04:20:56.329Z,9.87
2018-07-05T04:23:36.886Z,10.83
2018-07-05T04:26:17.348Z,10.87
2018-07-05T04:28:57.701Z,11.27
2018-07-05T04:31:38.105Z,10.07
2018-07-05T04:34:18.966Z,11.03
2018-07-05T04:36:59.414Z,10.53
2018-07-05T04:39:39.810Z,10.67
2018-07-05T04:42:20.647Z,10.90
2018-07-05T04:45:01.195Z,11.10
2018-07-05T04:47:41.609Z,10.93
2018-07-05T04:50:22.006Z,10.97
2018-07-05T04:53:02.366Z,10.77
2018-07-05T04:55:42.829Z,9.87
2018-07-05T04:58:23.297Z,11.00
2018-07-05T05:01:04.009Z,11.40
2018-07-05T05:03:44.625Z,10.83
2018-07-05T05:06:25.074Z,10.03
2018-07-05T05:09:05.740Z,11.90
2018-07-05T05:11:46.053Z,10.53
2018-07-05T05:14:26.430Z,10.50
2018-07-05T05:17:06.875Z,10.73
2018-07-05T05:19:47.260Z,11.10
2018-07-05T05:22:27.618Z,10.60
2018-07-05T05:25:07.883Z,11.17
2018-07-05T05:27:48.329Z,12.27
2018-07-05T05:30:29.682Z,12.50
2018-07-05T05:33:09.977Z,11.00
2018-07-05T05:35:50.608Z,11.93
2018-07-05T05:38:30.838Z,10.70
2018-07-05T05:41:11.161Z,11.17
2018-07-05T05:43:51.509Z,10.63
2018-07-05T05:46:32.178Z,10.90
2018-07-05T05:49:12.706Z,10.33
2018-07-05T05:51:53.193Z,10.87
2018-07-05T05:54:33.714Z,10.77
2018-07-05T05:57:14.051Z,11.33
2018-07-05T05:59:54.576Z,11.90
2018-07-05T06:02:35.177Z,11.03
2018-07-05T06:05:15.729Z,10.80
2018-07-05T06:07:56.145Z,10.03
2018-07-05T06:10:36.745Z,11.00
2018-07-05T06:13:18.157Z,10.07
2018-07-05T06:15:58.534Z,11.27
2018-07-05T06:18:39.483Z,11.07
2018-07-05T06:21:19.933Z,10.97
2018-07-05T06:24:00.157Z,11.00
2018-07-05T06:26:40.446Z,11.57
2018-07-05T06:29:20.908Z,10.57
2018-07-05T06:32:01.546Z,10.93
2018-07-05T06:34:42.145Z,10.83
2018-07-05T06:37:22.493Z,11.80
2018-07-05T06:40:02.947Z,10.67
2018-07-05T06:42:43.288Z,10.50
2018-07-05T06:45:23.726Z,12.57
2018-07-05T06:48:04.110Z,13.00
2018-07-05T06:50:44.574Z,12.40
2018-07-05T06:53:25.018Z,12.07
2018-07-05T06:56:05.270Z,12.10
2018-07-05T06:58:45.924Z,12.27
2018-07-05T07:01:20.387Z,11.70
2018-07-05T07:04:00.704Z,12.20
2018-07-05T07:06:42.171Z,12.77
2018-07-05T07:09:16.863Z,12.00
2018-07-05T07:11:57.220Z,11.80
2018-07-05T07:14:37.518Z,12.53
2018-07-05T07:17:18.097Z,13.03
2018-07-05T07:19:58.533Z,12.87
2018-07-05T07:22:38.814Z,13.03
2018-07-05T07:25:19.008Z,12.50
2018-07-05T07:27:59.353Z,11.43
2018-07-05T07:30:39.702Z,11.10
2018-07-05T07:33:20.154Z,12.50
2018-07-05T07:36:00.634Z,11.70
2018-07-05T07:38:41.183Z,12.10
2018-07-05T07:41:21.505Z,12.80
2018-07-05T07:43:49.726Z,11.73
2018-07-05T07:46:17.683Z,12.40
2018-07-05T07:48:45.626Z,11.03
2018-07-05T07:51:14.491Z,11.63
2018-07-05T07:53:42.452Z,13.10
2018-07-05T07:56:10.412Z,12.70
2018-07-05T07:58:38.609Z,11.80
2018-07-05T08:01:06.557Z,12.10
2018-07-05T08:03:34.518Z,11.83
2018-07-05T08:06:02.506Z,11.13
2018-07-05T08:08:30.490Z,11.70
2018-07-05T08:10:58.455Z,11.67
2018-07-05T08:13:26.472Z,11.37
2018-07-05T08:15:55.462Z,11.60
2018-07-05T08:18:23.628Z,11.47
2018-07-05T08:20:51.580Z,13.10
2018-07-05T08:23:19.533Z,11.70
2018-07-05T08:25:47.508Z,11.87
2018-07-05T08:28:15.472Z,11.93
2018-07-05T08:30:43.418Z,11.07
2018-07-05T08:33:11.394Z,11.97
2018-07-05T08:35:39.376Z,12.10
2018-07-05T08:38:07.379Z,11.00
2018-07-05T08:40:35.305Z,10.77
2018-07-05T08:43:03.260Z,11.20
2018-07-05T08:45:31.222Z,11.33
2018-07-05T08:47:59.243Z,12.83
2018-07-05T08:50:27.174Z,10.83
2018-07-05T08:52:55.129Z,11.13
2018-07-05T08:55:23.100Z,9.90
2018-07-05T08:57:51.073Z,10.30
2018-07-05T09:00:19.039Z,9.47
2018-07-05T09:02:47.022Z,8.53
2018-07-05T09:05:15.007Z,8.77
2018-07-05T09:07:43.062Z,8.33
2018-07-05T09:10:11.025Z,9.40
2018-07-05T09:12:38.933Z,7.00
2018-07-05T09:15:06.865Z,7.03
2018-07-05T09:17:34.900Z,7.50
2018-07-05T09:20:02.807Z,8.13
2018-07-05T09:22:30.749Z,7.70
2018-07-05T09:24:58.686Z,7.07
2018-07-05T09:27:26.624Z,7.80
2018-07-05T09:29:54.580Z,7.30
2018-07-05T09:32:22.515Z,7.90
2018-07-05T09:34:50.680Z,7.80
2018-07-05T09:37:18.611Z,7.70
2018-07-05T09:39:46.558Z,7.43
2018-07-05T09:42:14.597Z,7.70
2018-07-05T09:44:42.614Z,7.03
2018-07-05T09:47:10.696Z,6.40
2018-07-05T09:49:38.656Z,5.90
2018-07-05T09:52:06.569Z,4.70
2018-07-05T09:54:34.507Z,5.33
2018-07-05T09:57:02.439Z,6.63
2018-07-05T09:59:30.560Z,6.20
2018-07-05T10:01:59.283Z,5.20
2018-07-05T10:04:27.146Z,5.37
2018-07-05T10:06:55.064Z,5.87
2018-07-05T10:09:23.012Z,4.63
2018-07-05T10:11:50.976Z,5.30
2018-07-05T10:14:18.919Z,5.80
2018-07-05T10:16:46.847Z,5.70
2018-07-05T10:19:14.825Z,4.87
2018-07-05T10:21:42.857Z,4.93
2018-07-05T10:24:10.830Z,5.60
2018-07-05T10:26:38.824Z,5.40
2018-07-05T10:29:18.986Z,4.47
2018-07-05T10:31:59.352Z,4.80
2018-07-05T10:34:27.279Z,4.60
2018-07-05T10:36:55.616Z,5.40
2018-07-05T10:39:23.483Z,4.90
2018-07-05T10:42:03.913Z,4.70
2018-07-05T10:44:44.317Z,6.10
2018-07-05T10:47:24.609Z,4.50
2018-07-05T10:50:04.978Z,4.57
2018-07-05T10:52:45.291Z,5.03
2018-07-05T10:55:25.841Z,4.60
2018-07-05T10:58:06.403Z,5.33
2018-07-05T11:00:46.894Z,5.03
2018-07-05T11:03:27.380Z,4.83
2018-07-05T11:06:07.757Z,4.87
2018-07-05T11:08:49.114Z,4.80
2018-07-05T11:11:29.450Z,4.30
2018-07-05T11:14:09.766Z,3.93
2018-07-05T11:16:50.166Z,4.07
2018-07-05T11:19:30.451Z,4.50
2018-07-05T11:22:10.965Z,4.10
2018-07-05T11:24:51.245Z,3.60
2018-07-05T11:27:31.606Z,4.30
2018-07-05T11:30:12.009Z,4.17
2018-07-05T11:32:52.227Z,4.57
2018-07-05T11:35:32.713Z,4.37
2018-07-05T11:38:13.086Z,4.03
2018-07-05T11:40:53.473Z,3.93
2018-07-05T11:43:33.890Z,3.67
2018-07-05T11:46:14.660Z,3.87
2018-07-05T11:48:55.233Z,4.07
2018-07-05T11:51:36.249Z,3.60
2018-07-05T11:54:16.710Z,3.97
2018-07-05T11:56:56.995Z,4.10
2018-07-05T11:59:37.301Z,3.63
2018-07-05T12:02:17.826Z,3.47
2018-07-05T12:04:58.346Z,3.63
2018-07-05T12:07:38.631Z,3.17
2018-07-05T12:10:18.858Z,3.10
2018-07-05T12:12:59.312Z,4.07
2018-07-05T12:15:39.611Z,3.77
2018-07-05T12:18:20.037Z,3.50
2018-07-05T12:21:00.272Z,3.70
2018-07-05T12:23:40.654Z,3.70
2018-07-05T12:26:21.083Z,3.83
2018-07-05T12:29:01.495Z,3.67
2018-07-05T12:31:41.834Z,4.43
2018-07-05T12:34:22.108Z,3.93
2018-07-05T12:37:02.565Z,3.70
2018-07-05T12:39:43.107Z,3.63
2018-07-05T12:42:23.699Z,5.30
2018-07-05T12:45:04.294Z,4.13
2018-07-05T12:47:44.825Z,3.70
2018-07-05T12:50:25.184Z,4.07
2018-07-05T12:53:05.645Z,4.50
2018-07-05T12:55:47.453Z,3.90
2018-07-05T12:58:28.733Z,3.70
2018-07-05T13:01:09.285Z,3.90
2018-07-05T13:03:49.786Z,3.73
2018-07-05T13:06:30.117Z,3.60
2018-07-05T13:09:10.442Z,3.50
2018-07-05T13:11:50.695Z,3.10
2018-07-05T13:14:31.855Z,2.90
2018-07-05T13:17:12.272Z,3.03
2018-07-05T13:19:52.558Z,2.90
2018-07-05T13:22:32.898Z,2.93
2018-07-05T13:25:13.146Z,2.83
2018-07-05T13:27:53.567Z,2.70
2018-07-05T13:30:33.990Z,3.30
2018-07-05T13:33:14.350Z,2.90
2018-07-05T13:35:54.805Z,2.90
2018-07-05T13:38:35.162Z,3.37
2018-07-05T13:41:15.760Z,3.00
2018-07-05T13:43:56.066Z,2.90
2018-07-05T13:46:36.751Z,3.60
2018-07-05T13:49:17.085Z,3.33
2018-07-05T13:51:57.364Z,3.50
2018-07-05T13:54:37.660Z,3.23
2018-07-05T13:57:18.193Z,3.03
2018-07-05T13:59:58.377Z,3.17
2018-07-05T14:02:38.811Z,2.83
2018-07-05T14:05:19.144Z,3.23
2018-07-05T14:07:59.862Z,3.37
2018-07-05T14:10:41.078Z,3.63
2018-07-05T14:13:21.186Z,3.00
2018-07-05T14:16:01.385Z,4.03
2018-07-05T14:18:41.790Z,3.20
2018-07-05T14:21:22.025Z,3.30
2018-07-05T14:24:02.229Z,3.20
2018-07-05T14:26:42.666Z,2.73
2018-07-05T14:29:23.026Z,3.47
2018-07-05T14:32:03.437Z,3.50
2018-07-05T14:34:43.878Z,2.60
2018-07-05T14:37:24.315Z,3.17
2018-07-05T14:40:04.647Z,2.70
2018-07-05T14:42:44.985Z,3.20
2018-07-05T14:45:25.208Z,3.40
2018-07-05T14:48:05.664Z,3.00
2018-07-05T14:50:46.351Z,3.00
2018-07-05T14:53:26.733Z,3.60
2018-07-05T14:56:07.291Z,3.03
2018-07-05T14:58:47.716Z,2.87
2018-07-05T15:01:28.134Z,3.40
2018-07-05T15:04:08.334Z,2.77
2018-07-05T15:06:48.621Z,3.70
2018-07-05T15:09:29.058Z,3.30
2018-07-05T15:12:09.341Z,2.90
2018-07-05T15:14:49.839Z,3.20
2018-07-05T15:17:30.134Z,3.00
2018-07-05T15:20:10.516Z,2.90
2018-07-05T15:22:50.883Z,3.03
2018-07-05T15:25:30.964Z,2.97
2018-07-05T15:28:11.403Z,2.50
2018-07-05T15:30:51.898Z,2.80
2018-07-05T15:33:32.377Z,3.20
2018-07-05T15:36:06.734Z,2.63
2018-07-05T15:38:47.174Z,2.50
2018-07-05T15:41:27.431Z,2.80
2018-07-05T15:44:07.867Z,2.80
2018-07-05T15:46:48.565Z,2.50
2018-07-05T15:49:28.802Z,2.20
2018-07-05T15:52:09.361Z,2.43
2018-07-05T15:54:49.753Z,2.70
2018-07-05T15:57:30.161Z,2.60
2018-07-05T16:00:10.654Z,2.47
2018-07-05T16:02:51.469Z,2.23
2018-07-05T16:05:32.104Z,2.50
2018-07-05T16:08:12.424Z,2.57
2018-07-05T16:10:52.579Z,2.57
2018-07-05T16:13:32.841Z,2.63
2018-07-05T16:16:13.197Z,2.30
2018-07-05T16:18:53.584Z,2.30
2018-07-05T16:21:34.000Z,3.00
2018-07-05T16:24:14.391Z,2.53
2018-07-05T16:26:54.713Z,2.50
2018-07-05T16:29:34.877Z,2.43
2018-07-05T16:32:15.421Z,2.37
2018-07-05T16:34:56.132Z,2.97
2018-07-05T16:37:36.374Z,2.30
2018-07-05T16:40:16.724Z,2.60
2018-07-05T16:42:57.236Z,2.50
2018-07-05T16:45:37.345Z,3.10
2018-07-05T16:48:17.966Z,2.47
2018-07-05T16:50:58.273Z,2.37
2018-07-05T16:53:38.545Z,2.60
2018-07-05T16:56:18.877Z,2.67
2018-07-05T16:58:59.135Z,2.70
2018-07-05T17:01:39.436Z,2.43
2018-07-05T17:04:19.958Z,2.70
2018-07-05T17:07:00.237Z,2.77
2018-07-05T17:09:40.745Z,2.53
2018-07-05T17:12:21.016Z,2.50
2018-07-05T17:14:55.402Z,2.87
2018-07-05T17:17:35.713Z,2.43
2018-07-05T17:20:15.976Z,2.53
2018-07-05T17:22:56.370Z,3.33
2018-07-05T17:25:37.317Z,2.20
2018-07-05T17:28:17.617Z,2.40
2018-07-05T17:30:57.889Z,2.43
2018-07-05T17:33:38.341Z,2.30
2018-07-05T17:36:18.881Z,2.20
2018-07-05T17:38:59.401Z,1.90
2018-07-05T17:41:40.009Z,2.13
2018-07-05T17:44:20.973Z,2.23
2018-07-05T17:47:01.669Z,1.83
2018-07-05T17:49:42.812Z,1.90
2018-07-05T17:52:23.998Z,2.10
2018-07-05T17:55:04.403Z,2.20
2018-07-05T17:57:44.956Z,1.97
2018-07-05T18:00:25.297Z,2.03
2018-07-05T18:03:05.779Z,1.80
2018-07-05T18:05:46.352Z,2.30
2018-07-05T18:08:26.687Z,2.10
2018-07-05T18:11:07.129Z,1.87
2018-07-05T18:13:47.548Z,1.80
2018-07-05T18:16:27.856Z,1.60
2018-07-05T18:19:08.262Z,1.63
2018-07-05T18:21:48.874Z,2.30
2018-07-05T18:24:29.354Z,2.10
2018-07-05T18:27:09.766Z,2.77
2018-07-05T18:29:50.205Z,2.50
2018-07-05T18:32:30.721Z,1.93
2018-07-05T18:35:11.177Z,1.80
2018-07-05T18:37:51.454Z,2.90
2018-07-05T18:40:31.873Z,1.60
2018-07-05T18:43:12.367Z,1.83
2018-07-05T18:45:52.513Z,1.93
2018-07-05T18:48:32.998Z,1.93
2018-07-05T18:51:13.308Z,1.93
2018-07-05T18:53:53.751Z,1.80
2018-07-05T18:56:34.072Z,2.30
2018-07-05T18:59:14.503Z,3.03
2018-07-05T19:01:48.955Z,2.03
2018-07-05T19:04:29.555Z,2.10
2018-07-05T19:07:10.110Z,1.70
2018-07-05T19:09:50.508Z,3.10
2018-07-05T19:12:31.011Z,3.87
2018-07-05T19:15:11.528Z,3.87
2018-07-05T19:17:51.888Z,2.40
2018-07-05T19:20:32.214Z,2.07
2018-07-05T19:23:12.646Z,3.07
2018-07-05T19:25:52.837Z,2.83
2018-07-05T19:28:27.272Z,2.83
2018-07-05T19:31:07.640Z,5.20
2018-07-05T19:33:48.270Z,4.03
2018-07-05T19:36:28.638Z,2.43
2018-07-05T19:39:08.909Z,2.07
2018-07-05T19:41:49.274Z,2.50
2018-07-05T19:44:29.651Z,2.30
2018-07-05T19:47:10.123Z,2.70
2018-07-05T19:49:50.529Z,2.20
2018-07-05T19:52:31.130Z,3.40
2018-07-05T19:55:11.462Z,2.70
2018-07-05T19:57:51.845Z,2.47
2018-07-05T20:00:32.414Z,2.50
2018-07-05T20:03:12.740Z,2.83
2018-07-05T20:05:47.462Z,2.90
2018-07-05T20:08:27.772Z,3.17
2018-07-05T20:11:08.198Z,3.00
2018-07-05T20:13:48.657Z,3.03
2018-07-05T20:16:28.985Z,2.83
2018-07-05T20:19:09.290Z,3.03
2018-07-05T20:21:50.022Z,2.90
2018-07-05T20:24:30.437Z,3.27
2018-07-05T20:27:10.728Z,3.00
2018-07-05T20:29:51.086Z,3.03
2018-07-05T20:32:31.500Z,3.60
2018-07-05T20:35:11.727Z,4.50
2018-07-05T20:37:52.082Z,3.20
2018-07-05T20:40:26.549Z,3.40
2018-07-05T20:43:06.962Z,3.47
2018-07-05T20:45:47.720Z,3.20
2018-07-05T20:48:28.178Z,3.10
2018-07-05T20:51:08.802Z,3.03
2018-07-05T20:53:49.306Z,4.00
2018-07-05T20:56:30.549Z,4.00
2018-07-05T20:59:11.140Z,4.20
2018-07-05T21:01:51.548Z,4.20
2018-07-05T21:04:31.892Z,4.27
2018-07-05T21:07:12.322Z,3.83
2018-07-05T21:09:46.713Z,4.00
2018-07-05T21:12:27.137Z,3.90
2018-07-05T21:15:07.589Z,4.70
2018-07-05T21:17:48.010Z,5.40
2018-07-05T21:20:28.557Z,4.07
2018-07-05T21:23:08.721Z,5.53
2018-07-05T21:25:48.924Z,5.20
2018-07-05T21:28:29.423Z,5.20
2018-07-05T21:31:09.947Z,4.67
2018-07-05T21:33:50.266Z,4.83
2018-07-05T21:36:30.727Z,5.40
2018-07-05T21:39:11.248Z,4.47
2018-07-05T21:41:51.656Z,4.13
2018-07-05T21:44:32.271Z,5.43
2018-07-05T21:47:12.717Z,4.90
2018-07-05T21:49:52.949Z,5.00
2018-07-05T21:52:33.206Z,4.80
2018-07-05T21:55:13.795Z,6.60
2018-07-05T21:57:54.189Z,5.17
2018-07-05T22:00:34.602Z,5.00
2018-07-05T22:03:15.039Z,5.90
2018-07-05T22:05:55.381Z,4.93
2018-07-05T22:08:35.843Z,5.13
2018-07-05T22:11:10.185Z,5.00
2018-07-05T22:13:50.415Z,4.97
2018-07-05T22:16:30.756Z,5.60
2018-07-05T22:19:16.640Z,6.20
2018-07-05T22:22:02.636Z,6.10
2018-07-05T22:24:48.666Z,5.37
2018-07-05T22:27:34.621Z,5.70
2018-07-05T22:30:20.552Z,6.37
2018-07-05T22:33:00.897Z,6.50
2018-07-05T22:35:41.444Z,7.30
2018-07-05T22:38:21.702Z,7.57
2018-07-05T22:41:02.075Z,6.67
2018-07-05T22:43:42.716Z,6.70
2018-07-05T22:46:17.092Z,6.37
2018-07-05T22:48:57.510Z,6.53
2018-07-05T22:51:37.840Z,6.43
2018-07-05T22:54:18.117Z,7.40
2018-07-05T22:56:58.468Z,5.80
2018-07-05T22:59:39.203Z,6.53
2018-07-05T23:02:19.587Z,6.77
2018-07-05T23:04:59.846Z,6.90
2018-07-05T23:07:40.307Z,6.70
2018-07-05T23:10:20.624Z,6.53
2018-07-05T23:13:00.932Z,6.03
2018-07-05T23:15:41.369Z,7.30
2018-07-05T23:18:21.722Z,6.60
2018-07-05T23:21:02.090Z,6.37
2018-07-05T23:23:36.334Z,6.10
2018-07-05T23:26:16.552Z,5.97
2018-07-05T23:28:57.017Z,6.33
2018-07-05T23:31:31.366Z,6.67
2018-07-05T23:34:11.696Z,6.50
2018-07-05T23:36:52.106Z,5.67
2018-07-05T23:39:32.661Z,6.63
2018-07-05T23:42:12.993Z,6.57
2018-07-05T23:44:53.525Z,6.40
2018-07-05T23:47:34.151Z,5.80
2018-07-05T23:50:14.853Z,5.77
2018-07-05T23:52:55.383Z,6.80
2018-07-05T23:55:35.736Z,6.90
2018-07-05T23:58:16.052Z,6.97
